Terminal Aerodrome Forecast
Issued by NWS

Home | Current Version | Previous Version | Text Only | Print | Product List | Glossary On
Versions: 1 2 3 4 5 6 7 8 9 10 11 12 13 14 15 16 17 18 19 20 21 22 23 24 25 26 27 28 29 30 31 32 33 34
000
FTUS45 KGGW 281500 AAC
TAFOLF
TAF AMD
KOLF 281530Z 2815/2912 VRB06KT P6SM BKN015
     FM281800 34009KT P6SM VCTS BKN060CB
     FM290000 02015G25KT P6SM VCSH BKN080
     FM290600 03014KT P6SM BKN100=

USA.gov is the U.S. government's official web portal to all federal, state and local government web resources and services.